Time;durP1;ratioP1;P1;durP2;ratioP2;P2;SDS_P1;SDS_P2;PMS_P1;PMS_P2;Temp;Humidity;BMP_temperature;BMP_pressure;BME280_temperature;BME280_humidity;BME280_pressure;Samples;Min_cycle;Max_cycle;Signal;HPM_P1;HPM_P2
2023/07/08 06:51:47;;;;;;;;;;;16.00;50.00;;;;;;6296187;22;19933;-68
2023/07/08 06:54:14;;;;;;;;;;;16.00;50.00;;;;;;6302422;22;19923;-68
2023/07/08 06:56:41;;;;;;;;;;;16.00;50.10;;;;;;6303583;22;19997;-68
2023/07/08 06:59:08;;;;;;;;;;;15.90;50.40;;;;;;6303932;22;19903;-69
2023/07/08 07:01:36;;;;;;;;;;;15.90;50.30;;;;;;6303158;22;19942;-69
2023/07/08 07:04:03;;;;;;;;;;;15.90;50.30;;;;;;6303661;22;19915;-69
2023/07/08 07:06:30;;;;;;;;;;;15.90;50.40;;;;;;6303151;22;19971;-68
2023/07/08 07:08:57;;;;;;;;;;;15.90;50.60;;;;;;6301720;22;20003;-68
2023/07/08 07:11:23;;;;;;;;;;;15.80;50.80;;;;;;6275854;22;19938;-69
2023/07/08 07:13:50;;;;;;;;;;;15.80;51.10;;;;;;6301846;22;19902;-68
2023/07/08 07:16:17;;;;;;;;;;;15.80;51.40;;;;;;6301256;22;19911;-67
2023/07/08 07:18:44;;;;;;;;;;;15.70;51.60;;;;;;6302259;22;19913;-67
2023/07/08 07:21:11;;;;;;;;;;;15.70;51.90;;;;;;6301462;22;19907;-68
2023/07/08 07:23:38;;;;;;;;;;;15.70;52.30;;;;;;6304543;22;20336;-68
2023/07/08 07:26:05;;;;;;;;;;;15.70;52.60;;;;;;6304600;22;19911;-68
2023/07/08 07:28:31;;;;;;;;;;;15.70;52.90;;;;;;6304154;22;19941;-69
2023/07/08 07:30:58;;;;;;;;;;;15.60;53.00;;;;;;6303958;22;19907;-69
2023/07/08 07:33:25;;;;;;;;;;;15.60;53.20;;;;;;6304045;22;19921;-69
2023/07/08 07:35:52;;;;;;;;;;;15.60;53.40;;;;;;6304619;22;19915;-69
2023/07/08 07:38:19;;;;;;;;;;;15.50;53.60;;;;;;6304206;22;19976;-69
2023/07/08 07:40:45;;;;;;;;;;;15.50;53.70;;;;;;6304535;22;20212;-69
2023/07/08 07:43:12;;;;;;;;;;;15.50;54.00;;;;;;6304146;22;19934;-69
2023/07/08 07:45:39;;;;;;;;;;;15.50;54.20;;;;;;6304531;22;19911;-69
2023/07/08 07:48:05;;;;;;;;;;;15.40;54.40;;;;;;6303188;22;20241;-68
2023/07/08 07:50:32;;;;;;;;;;;15.40;54.60;;;;;;6303322;22;19968;-69
2023/07/08 07:52:59;;;;;;;;;;;15.40;54.80;;;;;;6270809;22;20349;-69
2023/07/08 07:55:26;;;;;;;;;;;15.30;54.90;;;;;;6271637;22;20029;-68
2023/07/08 07:57:52;;;;;;;;;;;15.30;55.20;;;;;;6273351;22;19969;-68
2023/07/08 08:00:19;;;;;;;;;;;15.30;55.30;;;;;;6272960;22;19907;-67
2023/07/08 08:02:46;;;;;;;;;;;15.30;55.50;;;;;;6271324;22;20696;-69
2023/07/08 08:05:13;;;;;;;;;;;15.30;55.60;;;;;;6273125;22;19903;-68
2023/07/08 08:07:40;;;;;;;;;;;15.30;55.60;;;;;;6272438;22;20314;-68
2023/07/08 08:10:07;;;;;;;;;;;15.30;55.70;;;;;;6272855;22;20324;-70
2023/07/08 08:12:34;;;;;;;;;;;15.30;55.70;;;;;;6273093;22;19907;-69
2023/07/08 08:15:00;;;;;;;;;;;15.30;56.00;;;;;;6273292;22;19969;-68
2023/07/08 08:17:27;;;;;;;;;;;15.30;56.20;;;;;;6272065;22;19962;-69
2023/07/08 08:19:54;;;;;;;;;;;15.30;56.10;;;;;;6272118;22;20223;-68
2023/07/08 08:22:21;;;;;;;;;;;15.20;56.40;;;;;;6272659;22;19942;-69
2023/07/08 08:24:48;;;;;;;;;;;15.20;56.30;;;;;;6273020;22;19949;-71
2023/07/08 08:27:14;;;;;;;;;;;15.20;56.60;;;;;;6272133;22;20332;-69
2023/07/08 08:29:41;;;;;;;;;;;15.20;56.50;;;;;;6272395;22;19907;-70
2023/07/08 08:32:08;;;;;;;;;;;15.20;56.50;;;;;;6272342;22;19916;-71
2023/07/08 08:34:35;;;;;;;;;;;15.20;56.70;;;;;;6272515;22;20411;-71
2023/07/08 08:37:01;;;;;;;;;;;15.10;56.80;;;;;;6272277;22;19916;-69
2023/07/08 08:39:29;;;;;;;;;;;15.10;56.70;;;;;;6273245;22;19907;-70
2023/07/08 08:41:56;;;;;;;;;;;15.10;56.90;;;;;;6271864;22;19955;-69
2023/07/08 08:44:25;;;;;;;;;;;15.10;56.70;;;;;;6271329;22;19976;-69
2023/07/08 08:46:52;;;;;;;;;;;15.00;56.90;;;;;;6272916;22;19938;-71
2023/07/08 08:49:24;;;;;;;;;;;15.00;56.90;;;;;;6272614;22;19907;-69
2023/07/08 08:51:50;;;;;;;;;;;15.00;57.00;;;;;;6274219;22;19914;-68
2023/07/08 08:54:17;;;;;;;;;;;15.00;57.10;;;;;;6303134;22;19910;-68
2023/07/08 08:56:57;;;;;;;;;;;14.90;57.10;;;;;;6304060;22;19950;-68
2023/07/08 08:59:43;;;;;;;;;;;14.90;56.90;;;;;;6303307;22;19911;-71
2023/07/08 09:02:26;;;;;;;;;;;14.90;57.00;;;;;;6273769;22;19910;-68
2023/07/08 09:04:53;;;;;;;;;;;14.90;56.90;;;;;;6275427;22;19907;-68
2023/07/08 09:07:20;;;;;;;;;;;14.90;57.10;;;;;;6303883;22;20366;-68
2023/07/08 09:09:52;;;;;;;;;;;14.90;57.00;;;;;;6302737;22;20313;-66
2023/07/08 09:12:20;;;;;;;;;;;14.90;57.00;;;;;;6275825;22;20223;-65
2023/07/08 09:14:47;;;;;;;;;;;14.90;57.00;;;;;;6303513;22;19907;-66
2023/07/08 09:17:34;;;;;;;;;;;14.80;57.00;;;;;;6275557;22;19919;-65
2023/07/08 09:20:04;;;;;;;;;;;14.80;56.80;;;;;;6302842;22;19903;-66
2023/07/08 09:22:31;;;;;;;;;;;14.80;56.80;;;;;;6302590;22;19907;-67
2023/07/08 09:25:00;;;;;;;;;;;14.80;56.60;;;;;;6303304;22;19907;-66
2023/07/08 09:27:27;;;;;;;;;;;14.80;56.20;;;;;;6303395;22;20215;-67
2023/07/08 09:29:54;;;;;;;;;;;14.80;56.20;;;;;;6303620;22;19907;-71
2023/07/08 09:32:21;;;;;;;;;;;14.80;56.00;;;;;;6303707;22;19914;-69
2023/07/08 09:34:52;;;;;;;;;;;14.80;56.00;;;;;;6302944;22;20219;-68
2023/07/08 09:37:25;;;;;;;;;;;14.80;55.70;;;;;;6303948;22;19919;-68
2023/07/08 09:39:52;;;;;;;;;;;14.80;55.10;;;;;;6303236;22;19916;-68
2023/07/08 09:42:19;;;;;;;;;;;14.80;55.10;;;;;;6303649;22;19907;-67
2023/07/08 09:44:46;;;;;;;;;;;14.80;54.50;;;;;;6275177;22;19989;-69
2023/07/08 09:47:23;;;;;;;;;;;14.80;54.50;;;;;;6302373;22;19914;-68
2023/07/08 09:49:49;;;;;;;;;;;14.80;54.40;;;;;;6276562;22;19918;-68
2023/07/08 09:52:16;;;;;;;;;;;14.80;53.60;;;;;;6303301;22;19922;-68
2023/07/08 09:54:43;;;;;;;;;;;14.80;53.50;;;;;;6276342;22;19910;-68
2023/07/08 09:57:19;;;;;;;;;;;14.80;53.20;;;;;;6275161;22;19915;-67
2023/07/08 09:59:49;;;;;;;;;;;14.80;52.50;;;;;;6276633;22;19961;-67
2023/07/08 10:02:25;;;;;;;;;;;14.80;52.00;;;;;;6300581;22;19907;-68
2023/07/08 10:04:56;;;;;;;;;;;14.90;51.50;;;;;;6274802;22;20277;-67
2023/07/08 10:07:23;;;;;;;;;;;14.90;51.60;;;;;;6302986;22;19989;-67
2023/07/08 10:09:56;;;;;;;;;;;14.90;51.70;;;;;;6303037;22;19960;-68
2023/07/08 10:12:23;;;;;;;;;;;14.90;51.30;;;;;;6276332;22;19910;-69
2023/07/08 10:14:51;;;;;;;;;;;14.90;51.30;;;;;;6276291;22;19903;-66
2023/07/08 10:17:18;;;;;;;;;;;15.00;51.10;;;;;;6277580;22;19998;-68
2023/07/08 10:19:44;;;;;;;;;;;15.00;51.00;;;;;;6304670;22;20180;-68
2023/07/08 10:22:17;;;;;;;;;;;15.00;51.10;;;;;;6277288;22;19907;-68
2023/07/08 10:24:47;;;;;;;;;;;14.90;50.90;;;;;;6304792;22;19909;-68
2023/07/08 10:27:32;;;;;;;;;;;14.90;51.00;;;;;;6305235;22;19911;-68
2023/07/08 10:29:58;;;;;;;;;;;14.90;51.10;;;;;;6304253;22;19929;-69
2023/07/08 10:32:25;;;;;;;;;;;14.90;51.30;;;;;;6304903;22;20389;-67
2023/07/08 10:35:10;;;;;;;;;;;14.90;51.30;;;;;;6304118;22;20180;-69
2023/07/08 10:37:41;;;;;;;;;;;14.90;51.40;;;;;;6304739;22;20361;-67
2023/07/08 10:40:13;;;;;;;;;;;14.90;51.50;;;;;;6266895;22;20258;-73
2023/07/08 10:42:48;;;;;;;;;;;14.90;51.50;;;;;;6246260;22;19910;-72
2023/07/08 10:45:21;;;;;;;;;;;14.90;51.60;;;;;;6270622;22;19904;-69
2023/07/08 10:47:57;;;;;;;;;;;14.80;51.70;;;;;;6272842;22;20315;-67
2023/07/08 10:50:27;;;;;;;;;;;14.80;51.80;;;;;;6274046;22;19904;-70
2023/07/08 10:53:06;;;;;;;;;;;14.80;52.00;;;;;;6273035;22;19904;-69
2023/07/08 10:55:36;;;;;;;;;;;14.80;52.00;;;;;;6273233;22;19914;-71
2023/07/08 10:58:20;;;;;;;;;;;14.80;52.00;;;;;;6271571;22;19997;-71
2023/07/08 11:00:50;;;;;;;;;;;14.80;52.20;;;;;;6246971;22;19907;-71
2023/07/08 11:03:40;;;;;;;;;;;14.80;52.40;;;;;;6269820;22;19907;-71
2023/07/08 11:06:10;;;;;;;;;;;14.80;52.50;;;;;;6201714;22;19939;-70
2023/07/08 11:08:46;;;;;;;;;;;14.80;52.60;;;;;;6273638;22;19986;-70
2023/07/08 11:11:24;;;;;;;;;;;14.80;52.80;;;;;;6271824;22;19907;-68
2023/07/08 11:13:55;;;;;;;;;;;14.80;52.70;;;;;;6272495;22;19946;-70
2023/07/08 11:16:26;;;;;;;;;;;14.70;53.00;;;;;;6271570;22;19911;-70
2023/07/08 11:18:57;;;;;;;;;;;14.70;53.10;;;;;;6246078;22;19907;-69
2023/07/08 11:21:24;;;;;;;;;;;14.70;53.30;;;;;;6271858;22;19914;-72
2023/07/08 11:23:52;;;;;;;;;;;14.70;53.30;;;;;;6273666;22;19914;-73
2023/07/08 11:26:25;;;;;;;;;;;14.70;53.10;;;;;;6273750;22;19907;-71
2023/07/08 11:28:52;;;;;;;;;;;14.70;53.30;;;;;;6273118;22;20338;-71
2023/07/08 11:31:18;;;;;;;;;;;14.70;53.10;;;;;;6271285;22;19914;-70
2023/07/08 11:33:45;;;;;;;;;;;14.60;53.00;;;;;;6271500;22;19937;-68
2023/07/08 11:36:12;;;;;;;;;;;14.60;52.00;;;;;;6271925;22;20325;-71
2023/07/08 11:38:39;;;;;;;;;;;14.60;51.90;;;;;;6273986;22;19939;-73
2023/07/08 11:41:15;;;;;;;;;;;14.60;51.80;;;;;;6275006;22;19952;-73
2023/07/08 11:43:42;;;;;;;;;;;14.60;51.40;;;;;;6276416;22;20238;-73
2023/07/08 11:46:12;;;;;;;;;;;14.60;51.30;;;;;;6276679;22;19903;-73
2023/07/08 11:48:46;;;;;;;;;;;14.60;50.70;;;;;;6275514;22;19911;-72
2023/07/08 11:51:17;;;;;;;;;;;14.60;50.80;;;;;;6275320;22;19990;-72
2023/07/08 11:53:47;;;;;;;;;;;14.60;50.80;;;;;;6275201;22;19903;-72
2023/07/08 11:56:17;;;;;;;;;;;14.60;50.80;;;;;;6274739;22;19946;-72
2023/07/08 11:58:50;;;;;;;;;;;14.60;50.80;;;;;;6276858;22;19910;-72
2023/07/08 12:01:20;;;;;;;;;;;14.60;50.80;;;;;;6276454;22;20004;-72
2023/07/08 12:03:50;;;;;;;;;;;14.50;50.70;;;;;;6275896;22;19941;-72
2023/07/08 12:06:30;;;;;;;;;;;14.60;50.90;;;;;;6276019;22;19970;-72
2023/07/08 12:08:58;;;;;;;;;;;14.50;50.90;;;;;;6276614;22;20242;-72
2023/07/08 12:11:27;;;;;;;;;;;14.50;50.90;;;;;;6275247;22;19903;-72
2023/07/08 12:13:57;;;;;;;;;;;14.50;51.00;;;;;;6275073;22;19911;-73
2023/07/08 12:16:24;;;;;;;;;;;14.50;51.30;;;;;;6248766;22;19986;-72
2023/07/08 12:18:50;;;;;;;;;;;14.50;51.50;;;;;;6276691;22;19904;-72
2023/07/08 12:21:17;;;;;;;;;;;14.40;51.60;;;;;;6276480;22;20342;-72
2023/07/08 12:23:44;;;;;;;;;;;14.50;51.80;;;;;;6249360;22;19912;-73
2023/07/08 12:26:11;;;;;;;;;;;14.50;51.90;;;;;;6274978;22;19982;-72
2023/07/08 12:28:38;;;;;;;;;;;14.40;52.10;;;;;;6275810;22;19986;-73
2023/07/08 12:31:10;;;;;;;;;;;14.40;52.30;;;;;;6249270;22;19919;-73
2023/07/08 12:33:39;;;;;;;;;;;14.40;52.30;;;;;;6274884;22;19907;-72
2023/07/08 12:36:06;;;;;;;;;;;14.30;52.40;;;;;;6276535;22;19960;-72
2023/07/08 12:38:34;;;;;;;;;;;14.30;52.60;;;;;;6276519;22;19968;-72
2023/07/08 12:41:01;;;;;;;;;;;14.30;52.80;;;;;;6248344;22;19918;-73
2023/07/08 12:43:28;;;;;;;;;;;14.30;52.70;;;;;;6276473;22;19903;-73
2023/07/08 12:45:55;;;;;;;;;;;14.30;52.70;;;;;;6274629;22;19910;-72
2023/07/08 12:48:21;;;;;;;;;;;14.30;52.80;;;;;;6276127;22;19910;-73
2023/07/08 12:50:50;;;;;;;;;;;14.30;52.90;;;;;;6276178;22;19938;-73
2023/07/08 12:53:16;;;;;;;;;;;14.30;53.00;;;;;;6273608;22;19990;-73
2023/07/08 12:55:44;;;;;;;;;;;14.20;53.10;;;;;;6275753;22;19973;-72
2023/07/08 12:58:15;;;;;;;;;;;14.30;53.10;;;;;;6249077;22;20344;-72
2023/07/08 13:00:41;;;;;;;;;;;14.20;53.20;;;;;;6274926;22;19907;-72
2023/07/08 13:03:09;;;;;;;;;;;14.30;53.00;;;;;;6276001;22;19904;-73
2023/07/08 13:05:37;;;;;;;;;;;14.30;53.00;;;;;;6274010;22;19949;-73
2023/07/08 13:08:04;;;;;;;;;;;14.20;53.00;;;;;;6276399;22;20331;-72
2023/07/08 13:10:31;;;;;;;;;;;14.20;53.10;;;;;;6274515;22;20314;-73
2023/07/08 13:13:00;;;;;;;;;;;14.20;53.30;;;;;;6274714;22;19907;-73
2023/07/08 13:15:32;;;;;;;;;;;14.20;53.40;;;;;;6274224;22;19929;-73
2023/07/08 13:17:59;;;;;;;;;;;14.20;53.50;;;;;;6274520;22;19915;-73
2023/07/08 13:20:26;;;;;;;;;;;14.20;53.40;;;;;;6274347;22;19925;-72
2023/07/08 13:22:55;;;;;;;;;;;14.10;53.40;;;;;;6275593;22;19910;-72
2023/07/08 13:25:26;;;;;;;;;;;14.10;53.40;;;;;;6274757;22;19998;-73
2023/07/08 13:27:56;;;;;;;;;;;14.20;53.50;;;;;;6274416;22;20307;-73
2023/07/08 13:30:24;;;;;;;;;;;14.20;53.50;;;;;;6275680;22;19903;-73
2023/07/08 13:32:54;;;;;;;;;;;14.20;53.60;;;;;;6276217;22;19956;-72
2023/07/08 13:35:22;;;;;;;;;;;14.10;53.80;;;;;;6276041;22;19913;-73
2023/07/08 13:37:50;;;;;;;;;;;14.10;53.70;;;;;;6273830;22;19969;-73
2023/07/08 13:40:17;;;;;;;;;;;14.20;53.80;;;;;;6273718;22;19922;-72
2023/07/08 13:42:47;;;;;;;;;;;14.10;53.60;;;;;;6248906;22;19957;-72
2023/07/08 13:45:15;;;;;;;;;;;14.10;53.60;;;;;;6248920;22;19926;-72
2023/07/08 13:47:42;;;;;;;;;;;14.20;53.60;;;;;;6274426;22;19913;-72
2023/07/08 13:50:15;;;;;;;;;;;14.10;53.50;;;;;;6273618;22;20216;-73
2023/07/08 13:52:43;;;;;;;;;;;14.20;53.50;;;;;;6276530;22;19965;-73
2023/07/08 13:55:13;;;;;;;;;;;14.10;53.20;;;;;;6278106;22;19904;-73
2023/07/08 13:57:39;;;;;;;;;;;14.20;53.50;;;;;;6276690;22;19918;-72
2023/07/08 14:00:08;;;;;;;;;;;14.20;53.50;;;;;;6277329;22;19986;-73
2023/07/08 14:02:34;;;;;;;;;;;14.20;53.60;;;;;;6277764;22;19904;-72
2023/07/08 14:05:03;;;;;;;;;;;14.20;53.60;;;;;;6278004;22;20246;-73
2023/07/08 14:07:31;;;;;;;;;;;14.20;53.80;;;;;;6275934;22;20235;-73
2023/07/08 14:09:58;;;;;;;;;;;14.20;53.70;;;;;;6276600;22;19911;-72
2023/07/08 14:12:24;;;;;;;;;;;14.20;53.80;;;;;;6275977;22;19910;-72
2023/07/08 14:14:51;;;;;;;;;;;14.20;53.90;;;;;;6277941;22;20220;-73
2023/07/08 14:17:19;;;;;;;;;;;14.20;53.90;;;;;;6276379;22;19911;-73
2023/07/08 14:19:46;;;;;;;;;;;14.20;54.00;;;;;;6277575;22;19919;-73
2023/07/08 14:22:13;;;;;;;;;;;14.10;54.10;;;;;;6276093;22;20318;-72
2023/07/08 14:24:40;;;;;;;;;;;14.20;54.20;;;;;;6277408;22;19929;-73
2023/07/08 14:27:12;;;;;;;;;;;14.20;54.30;;;;;;6275282;22;19907;-73
2023/07/08 14:29:39;;;;;;;;;;;14.10;54.30;;;;;;6276286;22;19953;-73
2023/07/08 14:32:10;;;;;;;;;;;14.10;54.30;;;;;;6277817;22;19911;-73
2023/07/08 14:34:36;;;;;;;;;;;14.10;54.50;;;;;;6275845;22;20204;-73
2023/07/08 14:37:05;;;;;;;;;;;14.00;54.60;;;;;;6274869;22;19915;-72
2023/07/08 14:39:31;;;;;;;;;;;14.00;54.70;;;;;;6275904;22;19946;-73
2023/07/08 14:41:58;;;;;;;;;;;14.00;54.80;;;;;;6277918;22;19982;-73
2023/07/08 14:44:25;;;;;;;;;;;14.00;54.80;;;;;;6277639;22;20029;-73
2023/07/08 14:46:53;;;;;;;;;;;14.00;55.00;;;;;;6275646;22;19910;-73
2023/07/08 14:49:20;;;;;;;;;;;14.00;55.10;;;;;;6276176;22;19911;-73
2023/07/08 14:51:47;;;;;;;;;;;13.90;55.10;;;;;;6277561;22;20326;-73
2023/07/08 14:54:14;;;;;;;;;;;13.90;55.30;;;;;;6275690;22;19907;-73
2023/07/08 14:56:41;;;;;;;;;;;13.90;55.40;;;;;;6277120;22;19990;-73
2023/07/08 14:59:17;;;;;;;;;;;13.80;55.50;;;;;;6275656;22;19903;-73
2023/07/08 15:01:44;;;;;;;;;;;13.80;55.90;;;;;;6275626;22;20256;-73
2023/07/08 15:04:11;;;;;;;;;;;13.70;56.30;;;;;;6275610;22;20310;-73
2023/07/08 15:06:38;;;;;;;;;;;13.70;56.50;;;;;;6277335;22;19907;-73
2023/07/08 15:09:08;;;;;;;;;;;13.60;56.90;;;;;;6275909;22;20335;-73
2023/07/08 15:11:37;;;;;;;;;;;13.60;56.90;;;;;;6275296;22;20293;-72
2023/07/08 15:14:04;;;;;;;;;;;13.60;56.70;;;;;;6275968;22;19982;-71
2023/07/08 15:16:31;;;;;;;;;;;13.50;57.00;;;;;;6277411;22;19958;-72
2023/07/08 15:18:57;;;;;;;;;;;13.50;57.00;;;;;;6276200;22;19914;-72
2023/07/08 15:21:24;;;;;;;;;;;13.50;56.80;;;;;;6275898;22;19951;-71
2023/07/08 15:23:51;;;;;;;;;;;13.50;57.00;;;;;;6274800;22;19957;-72
2023/07/08 15:26:18;;;;;;;;;;;13.50;57.20;;;;;;6276633;22;19934;-72
2023/07/08 15:28:48;;;;;;;;;;;13.40;57.90;;;;;;6275575;22;19965;-72
2023/07/08 15:31:24;;;;;;;;;;;13.30;58.30;;;;;;6275747;22;19981;-72
2023/07/08 15:33:54;;;;;;;;;;;13.20;58.50;;;;;;6276790;22;19911;-72
2023/07/08 15:36:21;;;;;;;;;;;13.20;58.60;;;;;;6276936;22;19982;-72
2023/07/08 15:38:47;;;;;;;;;;;13.20;58.90;;;;;;6277100;22;19907;-71
2023/07/08 15:41:19;;;;;;;;;;;13.20;58.70;;;;;;6276819;22;19961;-71
2023/07/08 15:43:46;;;;;;;;;;;13.30;58.50;;;;;;6275826;22;19916;-72
2023/07/08 15:46:13;;;;;;;;;;;13.20;59.10;;;;;;6274919;22;19903;-72
2023/07/08 15:48:39;;;;;;;;;;;13.20;59.10;;;;;;6276929;22;19949;-72
2023/07/08 15:51:06;;;;;;;;;;;13.20;59.00;;;;;;6275179;22;19953;-71
2023/07/08 15:53:33;;;;;;;;;;;13.20;58.90;;;;;;6275219;22;19903;-71
2023/07/08 15:56:00;;;;;;;;;;;13.30;57.70;;;;;;6276635;22;19980;-72
2023/07/08 15:58:31;;;;;;;;;;;13.30;57.80;;;;;;6274396;22;19982;-72
2023/07/08 16:00:58;;;;;;;;;;;13.30;57.30;;;;;;6276153;22;19908;-72
2023/07/08 16:03:26;;;;;;;;;;;13.30;57.10;;;;;;6275268;22;19904;-72
2023/07/08 16:05:53;;;;;;;;;;;13.40;56.90;;;;;;6275472;22;19935;-71
2023/07/08 16:08:19;;;;;;;;;;;13.40;56.80;;;;;;6276812;22;19949;-72
2023/07/08 16:10:48;;;;;;;;;;;13.50;56.80;;;;;;6273121;22;20307;-71
2023/07/08 16:13:15;;;;;;;;;;;13.50;56.60;;;;;;6272039;22;20238;-71
2023/07/08 16:15:42;;;;;;;;;;;13.50;56.50;;;;;;6273296;22;19922;-71
2023/07/08 16:18:14;;;;;;;;;;;13.50;56.60;;;;;;6274225;22;19915;-72
2023/07/08 16:20:41;;;;;;;;;;;13.50;56.50;;;;;;6246713;22;19943;-72
2023/07/08 16:23:08;;;;;;;;;;;13.50;56.40;;;;;;6274381;22;19939;-72
2023/07/08 16:25:42;;;;;;;;;;;13.50;56.40;;;;;;6271581;22;19931;-71
2023/07/08 16:28:12;;;;;;;;;;;13.60;56.40;;;;;;6272673;22;19926;-72
2023/07/08 16:30:39;;;;;;;;;;;13.60;56.10;;;;;;6272433;22;19907;-72
2023/07/08 16:33:05;;;;;;;;;;;13.60;56.00;;;;;;6276576;22;20310;-71
2023/07/08 16:35:32;;;;;;;;;;;13.60;56.10;;;;;;6274809;22;19903;-72
2023/07/08 16:37:59;;;;;;;;;;;13.60;55.90;;;;;;6276262;22;20284;-72
2023/07/08 16:40:26;;;;;;;;;;;13.60;55.90;;;;;;6276161;22;20036;-72
2023/07/08 16:42:56;;;;;;;;;;;13.60;56.20;;;;;;6274857;22;19938;-72
2023/07/08 16:45:23;;;;;;;;;;;13.60;56.30;;;;;;6276488;22;19903;-72
2023/07/08 16:47:51;;;;;;;;;;;13.60;56.30;;;;;;6249522;22;20185;-72
2023/07/08 16:50:18;;;;;;;;;;;13.60;56.40;;;;;;6274528;22;19938;-72
2023/07/08 16:52:44;;;;;;;;;;;13.60;56.50;;;;;;6275760;22;19974;-72
2023/07/08 16:55:15;;;;;;;;;;;13.60;56.60;;;;;;6276328;22;20013;-72
2023/07/08 16:57:42;;;;;;;;;;;13.60;56.60;;;;;;6276251;22;19916;-72
2023/07/08 17:00:12;;;;;;;;;;;13.60;56.70;;;;;;6276084;22;19903;-72
2023/07/08 17:02:39;;;;;;;;;;;13.60;56.70;;;;;;6274384;22;19938;-72
2023/07/08 17:05:25;;;;;;;;;;;13.50;56.70;;;;;;6274263;22;20361;-72
2023/07/08 17:07:53;;;;;;;;;;;13.50;56.70;;;;;;6276291;22;20285;-72
2023/07/08 17:10:20;;;;;;;;;;;13.50;56.90;;;;;;6276326;22;19903;-72
2023/07/08 17:12:47;;;;;;;;;;;13.50;56.80;;;;;;6276535;22;19903;-72
2023/07/08 17:15:14;;;;;;;;;;;13.50;56.70;;;;;;6275676;22;19910;-72
2023/07/08 17:17:42;;;;;;;;;;;13.50;56.70;;;;;;6275925;22;19919;-72
2023/07/08 17:20:33;;;;;;;;;;;13.50;56.80;;;;;;6274171;22;19911;-72
2023/07/08 17:23:01;;;;;;;;;;;13.40;57.10;;;;;;6261210;22;19907;-72
2023/07/08 17:25:28;;;;;;;;;;;13.40;57.10;;;;;;6275974;22;19907;-72
2023/07/08 17:27:54;;;;;;;;;;;13.40;56.40;;;;;;6275656;22;20322;-72
2023/07/08 17:30:21;;;;;;;;;;;13.40;56.50;;;;;;6276198;22;20337;-72
2023/07/08 17:32:49;;;;;;;;;;;13.40;56.50;;;;;;6276475;22;19961;-72
2023/07/08 17:35:16;;;;;;;;;;;13.40;56.40;;;;;;6249165;22;20026;-72
2023/07/08 17:37:43;;;;;;;;;;;13.40;56.30;;;;;;6274061;22;19946;-72
2023/07/08 17:40:23;;;;;;;;;;;13.40;56.20;;;;;;6275109;22;20319;-72
2023/07/08 17:42:50;;;;;;;;;;;13.50;56.10;;;;;;6274554;22;19982;-72
2023/07/08 17:45:18;;;;;;;;;;;13.50;55.80;;;;;;6249053;22;20285;-72
2023/07/08 17:47:45;;;;;;;;;;;13.50;55.90;;;;;;6274051;22;19914;-72
2023/07/08 17:50:21;;;;;;;;;;;13.50;56.00;;;;;;6274435;22;19903;-72
2023/07/08 17:52:48;;;;;;;;;;;13.40;56.20;;;;;;6273756;22;20138;-72
2023/07/08 17:55:15;;;;;;;;;;;13.40;56.20;;;;;;6276064;22;19914;-72
2023/07/08 17:57:42;;;;;;;;;;;13.40;56.00;;;;;;6275100;22;20372;-72
2023/07/08 18:00:13;;;;;;;;;;;13.40;56.20;;;;;;6274412;22;19986;-72
2023/07/08 18:02:40;;;;;;;;;;;13.40;56.00;;;;;;6274495;22;19978;-72
2023/07/08 18:05:13;;;;;;;;;;;13.40;56.10;;;;;;6275452;22;19993;-72
2023/07/08 18:07:41;;;;;;;;;;;13.40;56.00;;;;;;6276198;22;19903;-72
2023/07/08 18:10:08;;;;;;;;;;;13.40;56.20;;;;;;6274358;22;20243;-72
2023/07/08 18:12:35;;;;;;;;;;;13.30;56.50;;;;;;6276244;22;19904;-73
2023/07/08 18:15:03;;;;;;;;;;;13.30;56.80;;;;;;6275309;22;20224;-72
2023/07/08 18:17:30;;;;;;;;;;;13.30;57.00;;;;;;6275021;22;19934;-72
2023/07/08 18:19:57;;;;;;;;;;;13.20;57.10;;;;;;6276090;22;19910;-72
2023/07/08 18:22:24;;;;;;;;;;;13.20;57.50;;;;;;6274564;22;20249;-72
2023/07/08 18:24:51;;;;;;;;;;;13.20;58.10;;;;;;6274436;22;19914;-72
2023/07/08 18:27:17;;;;;;;;;;;13.10;58.30;;;;;;6274164;22;20298;-72
2023/07/08 18:29:45;;;;;;;;;;;13.00;58.80;;;;;;6276071;22;19903;-72
2023/07/08 18:32:12;;;;;;;;;;;13.00;58.70;;;;;;6274471;22;19911;-72
2023/07/08 18:34:38;;;;;;;;;;;13.10;58.50;;;;;;6274260;22;19903;-72
2023/07/08 18:37:05;;;;;;;;;;;13.10;58.20;;;;;;6275801;22;20002;-72
2023/07/08 18:39:32;;;;;;;;;;;13.10;58.00;;;;;;6276983;22;19915;-72
2023/07/08 18:41:58;;;;;;;;;;;13.10;58.00;;;;;;6277588;22;19942;-72
2023/07/08 18:44:26;;;;;;;;;;;13.10;58.10;;;;;;6249997;22;20361;-72
2023/07/08 18:46:54;;;;;;;;;;;13.10;58.20;;;;;;6277615;22;19911;-72
2023/07/08 18:49:21;;;;;;;;;;;13.00;58.40;;;;;;6277794;22;19904;-72
2023/07/08 18:51:49;;;;;;;;;;;13.00;58.20;;;;;;6276199;22;20258;-72
2023/07/08 18:54:19;;;;;;;;;;;13.00;58.20;;;;;;6276671;22;19911;-72
2023/07/08 18:56:46;;;;;;;;;;;13.00;58.40;;;;;;6275288;22;19937;-72
2023/07/08 18:59:13;;;;;;;;;;;12.90;58.80;;;;;;6276082;22;20281;-72
2023/07/08 19:01:41;;;;;;;;;;;13.00;58.80;;;;;;6276135;22;19903;-72
2023/07/08 19:04:10;;;;;;;;;;;12.90;58.60;;;;;;6275923;22;20220;-72
2023/07/08 19:06:37;;;;;;;;;;;12.90;58.40;;;;;;6275624;22;19903;-72
2023/07/08 19:09:03;;;;;;;;;;;12.90;58.30;;;;;;6275989;22;19904;-72
2023/07/08 19:11:30;;;;;;;;;;;12.90;58.30;;;;;;6273756;22;19907;-74
2023/07/08 19:13:57;;;;;;;;;;;12.90;57.90;;;;;;6273685;22;19910;-72
2023/07/08 19:16:24;;;;;;;;;;;12.90;57.70;;;;;;6272587;22;19907;-72
2023/07/08 19:18:50;;;;;;;;;;;12.90;58.00;;;;;;6272549;22;19916;-72
2023/07/08 19:21:22;;;;;;;;;;;12.80;58.00;;;;;;6273424;22;19915;-72
2023/07/08 19:23:49;;;;;;;;;;;12.80;57.90;;;;;;6273451;22;19903;-72
2023/07/08 19:26:16;;;;;;;;;;;12.80;57.90;;;;;;6273059;22;19903;-69
2023/07/08 19:28:43;;;;;;;;;;;12.80;57.90;;;;;;6271734;22;19907;-68
2023/07/08 19:31:28;;;;;;;;;;;12.80;57.60;;;;;;6271838;22;19907;-70
2023/07/08 19:33:54;;;;;;;;;;;12.80;57.50;;;;;;6271772;22;19903;-71
2023/07/08 19:36:21;;;;;;;;;;;12.80;57.60;;;;;;6270761;22;19911;-71
2023/07/08 19:38:48;;;;;;;;;;;12.80;57.50;;;;;;6273178;22;19998;-71
2023/07/08 19:41:15;;;;;;;;;;;12.80;57.40;;;;;;6272809;22;19907;-71
2023/07/08 19:43:42;;;;;;;;;;;12.80;57.40;;;;;;6272895;22;19907;-71
2023/07/08 19:46:11;;;;;;;;;;;12.80;57.60;;;;;;6273570;22;20265;-71
2023/07/08 19:48:38;;;;;;;;;;;12.80;57.80;;;;;;6273494;22;19990;-70
2023/07/08 19:51:04;;;;;;;;;;;12.70;57.80;;;;;;6273346;22;20295;-72
2023/07/08 19:53:31;;;;;;;;;;;12.70;57.70;;;;;;6272942;22;19943;-71
2023/07/08 19:55:58;;;;;;;;;;;12.70;57.60;;;;;;6272557;22;20305;-71
2023/07/08 19:58:25;;;;;;;;;;;12.70;57.70;;;;;;6272439;22;19914;-71
2023/07/08 20:00:51;;;;;;;;;;;12.70;57.80;;;;;;6273240;22;20279;-71
2023/07/08 20:03:18;;;;;;;;;;;12.60;58.00;;;;;;6273386;22;19907;-72
2023/07/08 20:05:45;;;;;;;;;;;12.60;58.70;;;;;;6272999;22;19907;-71
2023/07/08 20:08:21;;;;;;;;;;;12.50;59.10;;;;;;6271358;22;20309;-71
2023/07/08 20:10:48;;;;;;;;;;;12.50;59.40;;;;;;6270389;22;19914;-70
2023/07/08 20:13:15;;;;;;;;;;;12.50;59.60;;;;;;6272378;22;19977;-70
2023/07/08 20:15:41;;;;;;;;;;;12.40;60.30;;;;;;6273063;22;19911;-69
2023/07/08 20:18:09;;;;;;;;;;;12.40;60.60;;;;;;6272912;22;20009;-69
2023/07/08 20:20:36;;;;;;;;;;;12.30;60.60;;;;;;6270881;22;19907;-69
2023/07/08 20:23:03;;;;;;;;;;;12.30;61.20;;;;;;6271438;22;19914;-69
2023/07/08 20:25:29;;;;;;;;;;;12.30;61.20;;;;;;6271270;22;19904;-69
2023/07/08 20:27:56;;;;;;;;;;;12.20;61.50;;;;;;6246207;22;19998;-69
2023/07/08 20:30:25;;;;;;;;;;;12.20;61.40;;;;;;6273018;22;19986;-71
2023/07/08 20:32:52;;;;;;;;;;;12.20;61.20;;;;;;6272546;22;19907;-73
2023/07/08 20:35:19;;;;;;;;;;;12.20;61.30;;;;;;6270172;22;19915;-72
2023/07/08 20:37:46;;;;;;;;;;;12.20;61.50;;;;;;6272431;22;19926;-71
2023/07/08 20:40:17;;;;;;;;;;;12.10;61.80;;;;;;6271104;22;19942;-72
2023/07/08 20:42:43;;;;;;;;;;;12.00;62.10;;;;;;6271958;22;19907;-72
2023/07/08 20:45:11;;;;;;;;;;;12.00;62.10;;;;;;6273478;22;19982;-72
2023/07/08 20:47:38;;;;;;;;;;;12.10;61.40;;;;;;6271091;22;19907;-72
2023/07/08 20:50:18;;;;;;;;;;;12.10;61.40;;;;;;6270672;22;19910;-71
2023/07/08 20:52:46;;;;;;;;;;;12.10;61.00;;;;;;6270254;22;19903;-70
2023/07/08 20:55:16;;;;;;;;;;;12.20;60.60;;;;;;6245570;22;20215;-69
2023/07/08 20:57:43;;;;;;;;;;;12.20;60.50;;;;;;6271828;22;19950;-70
2023/07/08 21:00:20;;;;;;;;;;;12.30;60.30;;;;;;6272361;22;19953;-71
2023/07/08 21:02:46;;;;;;;;;;;12.30;60.20;;;;;;6271926;22;20363;-71
2023/07/08 21:05:13;;;;;;;;;;;12.40;59.80;;;;;;6270579;22;19907;-72
2023/07/08 21:07:40;;;;;;;;;;;12.40;59.80;;;;;;6272606;22;20013;-72
2023/07/08 21:10:06;;;;;;;;;;;12.40;59.30;;;;;;6272533;22;19907;-73
2023/07/08 21:12:33;;;;;;;;;;;12.50;59.20;;;;;;6270806;22;20322;-70
2023/07/08 21:15:00;;;;;;;;;;;12.50;59.10;;;;;;6272367;22;19903;-72